Melissa RD121's Hourly Summary for Saturday, July 7, 2018
Hour Temp
(f)
RH
(%)
Solar Rad.
(MJ/m2)
Rainfall
(in)
Wind
(mph)
7/7/2018 12:00 AM 74 88 0 0 0
7/7/2018 1:00 AM 72 90 0 0 0
7/7/2018 2:00 AM 71 93 0 0 0
7/7/2018 3:00 AM 71 95 0 0 0
7/7/2018 4:00 AM 71 96 0 0 0.14
7/7/2018 5:00 AM 70 96 0 0 0
7/7/2018 6:00 AM 70 95 0.06 0 0.06
7/7/2018 7:00 AM 72 85 0.46 0 1.52
7/7/2018 8:00 AM 76 77 1.1 0 4.83
7/7/2018 9:00 AM 79 70 1.76 0 5.35
7/7/2018 10:00 AM 82 61 2.35 0 3.99
7/7/2018 11:00 AM 85 53 2.82 0 4.39
7/7/2018 12:00 PM 88 49 3.11 0 3.32
7/7/2018 1:00 PM 89 43 2.75 0 3.09
7/7/2018 2:00 PM 89 43 2.26 0 4.09
7/7/2018 3:00 PM 91 36 2.66 0 5.04
7/7/2018 4:00 PM 90 40 1.62 0 7.83
7/7/2018 5:00 PM 87 51 0.93 0 7.98
7/7/2018 6:00 PM 88 47 0.84 0 7.01
7/7/2018 7:00 PM 88 51 0.34 0 4.62
7/7/2018 8:00 PM 84 54 0.04 0 3.61
7/7/2018 9:00 PM 81 63 0 0 2.24
7/7/2018 10:00 PM 79 64 0 0 0
7/7/2018 11:00 PM 79 67 0 0 0
Data Summary 80 66 23.10 0.00 2.88